Time;durP1;ratioP1;P1;durP2;ratioP2;P2;SDS_P1;SDS_P2;PMS_P1;PMS_P2;Temp;Humidity;BMP_temperature;BMP_pressure;BME280_temperature;BME280_humidity;BME280_pressure;Samples;Min_cycle;Max_cycle;Signal;HPM_P1;HPM_P2
2023/08/28 00:00:37;;;;;;;;;1.00;1.00;;;;;18.61;59.05;100929.75;5079539;27;45318;-67
2023/08/28 00:03:03;;;;;;;;;1.00;1.00;;;;;18.64;59.37;100942.91;5078024;28;45643;-64
2023/08/28 00:05:30;;;;;;;;;1.33;1.00;;;;;18.56;59.71;100942.28;5077866;28;45366;-68
2023/08/28 00:07:56;;;;;;;;;1.00;1.00;;;;;18.47;60.48;100945.19;5078122;27;45422;-64
2023/08/28 00:10:22;;;;;;;;;2.33;1.00;;;;;18.50;59.91;100939.78;5077804;27;45464;-65
2023/08/28 00:12:48;;;;;;;;;1.00;1.00;;;;;18.50;59.74;100937.13;5077832;27;45479;-63
2023/08/28 00:15:14;;;;;;;;;1.00;1.00;;;;;18.63;59.32;100935.88;5077864;28;45314;-65
2023/08/28 00:17:39;;;;;;;;;2.00;0.00;;;;;18.68;59.04;100939.28;5077515;28;45519;-63
2023/08/28 00:20:09;;;;;;;;;3.00;1.33;;;;;18.69;58.98;100925.09;5076620;27;45420;-66
2023/08/28 00:22:38;;;;;;;;;2.33;2.00;;;;;18.54;59.18;100904.31;5078354;28;45424;-65
2023/08/28 00:25:07;;;;;;;;;3.00;2.00;;;;;18.63;59.19;100927.94;5077829;27;46080;-63
2023/08/28 00:27:32;;;;;;;;;2.33;1.33;;;;;18.53;59.88;100935.28;5076157;27;45302;-63
2023/08/28 00:29:58;;;;;;;;;2.00;1.00;;;;;18.44;59.97;100936.41;5076042;28;45518;-67
2023/08/28 00:32:25;;;;;;;;;4.33;1.00;;;;;18.56;59.50;100937.84;5078781;27;45484;-64
2023/08/28 00:34:51;;;;;;;;;2.00;2.00;;;;;18.50;59.65;100923.88;5077382;27;46117;-64
2023/08/28 00:37:17;;;;;;;;;1.00;1.00;;;;;18.55;59.52;100917.50;5078267;27;45522;-66
2023/08/28 00:39:42;;;;;;;;;1.00;1.00;;;;;18.64;59.29;100922.56;5077815;27;45972;-64
2023/08/28 00:42:08;;;;;;;;;1.00;1.00;;;;;18.59;58.73;100903.25;5078276;27;45459;-64
2023/08/28 00:44:33;;;;;;;;;1.33;1.33;;;;;18.74;58.29;100927.59;5093439;27;47901;-64
2023/08/28 00:46:59;;;;;;;;;1.00;1.00;;;;;18.65;59.45;100905.75;5063169;27;45497;-63
2023/08/28 00:49:27;;;;;;;;;1.00;1.00;;;;;18.68;59.21;100915.41;5078265;27;45495;-64
2023/08/28 00:51:52;;;;;;;;;1.00;1.00;;;;;18.65;58.69;100904.88;5075963;28;45445;-66
2023/08/28 00:54:19;;;;;;;;;1.00;1.00;;;;;18.74;59.49;100909.03;5077490;27;45643;-67
2023/08/28 00:56:46;;;;;;;;;2.00;1.00;;;;;18.72;59.10;100905.56;5077427;27;45267;-67
2023/08/28 00:59:15;;;;;;;;;1.00;1.00;;;;;18.74;59.14;100901.94;5077172;27;47072;-66
2023/08/28 01:01:40;;;;;;;;;2.33;1.00;;;;;18.71;58.95;100895.88;5077448;27;45460;-65
2023/08/28 01:04:06;;;;;;;;;1.00;1.00;;;;;18.75;59.15;100902.84;5076740;27;46099;-64
2023/08/28 01:06:47;;;;;;;;;2.33;1.00;;;;;18.76;58.62;100901.91;5077152;27;45356;-63
2023/08/28 01:09:34;;;;;;;;;1.00;1.00;;;;;18.77;58.84;100895.69;5078713;27;45757;-66
2023/08/28 01:12:16;;;;;;;;;1.00;1.00;;;;;18.74;58.55;100896.63;5077430;27;45435;-64
2023/08/28 01:15:17;;;;;;;;;0.00;0.00;;;;;18.78;58.91;100905.41;5063118;27;46740;-65
2023/08/28 01:17:50;;;;;;;;;1.67;1.67;;;;;18.76;59.37;100897.50;5108384;27;45341;-65
2023/08/28 01:20:16;;;;;;;;;1.00;1.00;;;;;18.69;59.29;100903.84;5079692;27;45488;-66
2023/08/28 01:22:50;;;;;;;;;1.33;1.33;;;;;18.67;59.36;100891.56;5078216;27;45210;-67
2023/08/28 01:25:17;;;;;;;;;3.00;2.00;;;;;18.74;58.92;100896.63;5076748;27;45564;-67
2023/08/28 01:27:43;;;;;;;;;2.67;2.00;;;;;18.72;58.88;100900.25;5091737;27;45503;-66
2023/08/28 01:30:13;;;;;;;;;1.67;1.67;;;;;18.63;59.62;100896.97;5076742;27;45448;-64
2023/08/28 01:32:41;;;;;;;;;2.67;1.00;;;;;18.65;59.35;100896.94;5076674;27;45786;-65
2023/08/28 01:35:11;;;;;;;;;1.00;1.00;;;;;18.61;59.15;100887.31;5076583;27;46413;-62
2023/08/28 01:37:46;;;;;;;;;3.00;1.00;;;;;18.56;58.88;100870.66;5076683;27;45522;-63
2023/08/28 01:40:15;;;;;;;;;0.00;0.00;;;;;18.59;58.94;100875.88;5076891;27;45566;-64
2023/08/28 01:42:44;;;;;;;;;0.67;0.67;;;;;18.60;58.94;100875.84;5077079;27;45349;-63
2023/08/28 01:45:11;;;;;;;;;0.33;0.33;;;;;18.62;58.93;100881.94;5076034;27;45445;-62
2023/08/28 01:47:37;;;;;;;;;1.00;1.00;;;;;18.62;59.15;100876.63;5077416;27;45476;-63
2023/08/28 01:50:04;;;;;;;;;2.33;1.33;;;;;18.43;59.42;100849.78;5076224;27;45412;-67
2023/08/28 01:52:29;;;;;;;;;2.00;1.67;;;;;18.49;59.79;100875.25;5076753;27;45658;-63
2023/08/28 01:54:55;;;;;;;;;1.33;1.00;;;;;18.46;60.03;100875.38;5076501;27;45695;-63
2023/08/28 01:57:20;;;;;;;;;1.00;1.00;;;;;18.47;60.04;100871.78;5076459;28;45365;-62
2023/08/28 01:59:46;;;;;;;;;1.33;1.00;;;;;18.36;60.59;100865.91;5091854;27;45492;-64
2023/08/28 02:02:11;;;;;;;;;1.00;1.00;;;;;18.35;60.49;100872.13;5076082;27;45301;-62
2023/08/28 02:04:37;;;;;;;;;2.00;0.00;;;;;18.32;60.68;100872.19;5075879;27;45986;-63
2023/08/28 02:07:02;;;;;;;;;2.00;0.33;;;;;18.36;60.41;100872.06;5074555;28;45536;-62
2023/08/28 02:09:28;;;;;;;;;1.00;1.00;;;;;18.42;60.40;100868.41;5079087;27;45851;-62
2023/08/28 02:11:53;;;;;;;;;0.67;0.00;;;;;18.37;60.34;100865.00;5080956;27;45395;-63
2023/08/28 02:14:19;;;;;;;;;0.00;0.00;;;;;18.42;60.32;100876.34;5080100;27;45632;-63
2023/08/28 02:16:44;;;;;;;;;4.00;1.00;;;;;18.34;60.90;100847.41;5095002;27;45581;-63
2023/08/28 02:19:10;;;;;;;;;0.67;0.67;;;;;18.35;60.88;100869.47;5080372;27;45517;-62
2023/08/28 02:21:36;;;;;;;;;1.00;1.00;;;;;18.38;60.51;100864.94;5080811;27;45436;-63
2023/08/28 02:24:01;;;;;;;;;0.00;0.00;;;;;18.43;60.46;100865.69;5095219;27;45440;-65
2023/08/28 02:26:27;;;;;;;;;2.00;0.00;;;;;18.39;60.19;100855.25;5080084;27;45829;-63
2023/08/28 02:28:53;;;;;;;;;0.67;0.67;;;;;18.48;60.22;100862.91;5080611;27;45567;-62
2023/08/28 02:31:18;;;;;;;;;2.00;0.67;;;;;18.38;60.77;100853.47;5081041;27;45522;-61
2023/08/28 02:33:44;;;;;;;;;0.00;0.00;;;;;18.44;60.56;100869.22;5079467;27;45441;-63
2023/08/28 02:36:09;;;;;;;;;0.00;0.00;;;;;18.46;60.36;100864.75;5079465;27;45338;-62
2023/08/28 02:38:35;;;;;;;;;0.33;0.00;;;;;18.52;60.09;100863.69;5079326;27;45449;-63
2023/08/28 02:41:08;;;;;;;;;0.00;0.00;;;;;18.56;60.04;100871.53;5079160;27;45319;-62
2023/08/28 02:43:34;;;;;;;;;0.00;0.00;;;;;18.51;60.84;100873.44;5078183;27;45637;-64
2023/08/28 02:46:01;;;;;;;;;0.33;0.33;;;;;18.33;60.81;100864.22;5080376;27;45685;-63
2023/08/28 02:48:27;;;;;;;;;1.00;1.00;;;;;18.38;61.09;100880.84;5079272;27;45433;-62
2023/08/28 02:50:52;;;;;;;;;0.00;0.00;;;;;18.28;61.28;100876.72;5079992;27;45486;-62
2023/08/28 02:53:18;;;;;;;;;2.67;1.00;;;;;18.32;61.54;100890.75;5078577;27;45470;-64
2023/08/28 02:56:13;;;;;;;;;1.00;0.67;;;;;18.33;61.25;100880.13;5079316;27;45472;-66
2023/08/28 02:58:39;;;;;;;;;1.00;1.00;;;;;18.41;60.90;100882.56;5079135;27;45441;-66
2023/08/28 03:01:05;;;;;;;;;2.67;1.00;;;;;18.40;60.61;100872.88;5080511;28;45239;-62
2023/08/28 03:03:30;;;;;;;;;2.00;0.00;;;;;18.52;60.74;100879.63;5080009;27;45456;-64
2023/08/28 03:05:57;;;;;;;;;0.00;0.00;;;;;18.48;60.19;100870.84;5080538;28;45420;-63
2023/08/28 03:08:22;;;;;;;;;1.00;1.00;;;;;18.55;60.43;100874.22;5080345;27;45455;-64
2023/08/28 03:10:48;;;;;;;;;1.00;1.00;;;;;18.61;60.03;100882.00;5079331;27;45723;-65
2023/08/28 03:13:13;;;;;;;;;1.00;1.00;;;;;18.63;60.24;100880.19;5078559;27;46140;-65
2023/08/28 03:15:39;;;;;;;;;0.00;0.00;;;;;18.59;60.25;100876.72;5079795;27;45476;-64
2023/08/28 03:18:05;;;;;;;;;0.00;0.00;;;;;18.65;60.01;100878.34;5078688;27;45515;-63
2023/08/28 03:20:32;;;;;;;;;1.00;1.00;;;;;18.65;60.16;100884.53;5079056;27;45403;-63
2023/08/28 03:22:58;;;;;;;;;4.00;2.00;;;;;18.59;60.12;100876.72;5079423;27;45506;-61
2023/08/28 03:25:24;;;;;;;;;1.33;1.00;;;;;18.68;59.88;100894.19;5079986;27;45232;-62
2023/08/28 03:27:49;;;;;;;;;2.00;1.33;;;;;18.67;60.46;100900.38;5078960;27;45463;-63
2023/08/28 03:30:15;;;;;;;;;1.67;1.67;;;;;18.69;60.14;100900.34;5078585;27;45442;-63
2023/08/28 03:32:40;;;;;;;;;1.00;1.00;;;;;18.69;59.87;100903.00;5078617;27;45587;-63
2023/08/28 03:35:06;;;;;;;;;1.00;1.00;;;;;18.72;59.88;100908.19;5080280;27;45431;-63
2023/08/28 03:37:31;;;;;;;;;0.33;0.33;;;;;18.71;59.96;100906.47;5079807;28;45352;-63
2023/08/28 03:39:57;;;;;;;;;0.00;0.00;;;;;18.70;60.17;100896.75;5080489;27;45629;-67
2023/08/28 03:42:22;;;;;;;;;2.33;1.00;;;;;18.64;60.54;100911.94;5079146;27;46484;-62
2023/08/28 03:44:48;;;;;;;;;0.67;0.67;;;;;18.61;60.72;100912.03;5078412;27;45515;-64
2023/08/28 03:47:13;;;;;;;;;1.00;1.00;;;;;18.45;61.08;100900.13;5078570;27;45952;-64
2023/08/28 03:49:39;;;;;;;;;1.00;1.00;;;;;18.47;60.70;100897.44;5078692;27;45466;-62
2023/08/28 03:52:05;;;;;;;;;1.33;0.67;;;;;18.38;60.80;100882.66;5077970;27;46166;-62
2023/08/28 03:54:31;;;;;;;;;3.00;1.00;;;;;18.52;60.56;100900.84;5078144;27;45445;-63
2023/08/28 03:56:56;;;;;;;;;1.00;1.00;;;;;18.56;60.71;100911.31;5079094;27;45311;-62
2023/08/28 03:59:23;;;;;;;;;2.00;1.00;;;;;18.49;61.41;100906.22;5077997;28;45519;-62
2023/08/28 04:01:49;;;;;;;;;0.00;0.00;;;;;18.46;61.08;100916.91;5077563;27;45557;-62
2023/08/28 04:04:16;;;;;;;;;2.67;0.33;;;;;18.43;60.76;100901.94;5078520;27;45235;-63
2023/08/28 04:06:42;;;;;;;;;2.00;1.00;;;;;18.53;61.00;100915.81;5079650;27;45562;-64
2023/08/28 04:09:07;;;;;;;;;0.00;0.00;;;;;18.51;61.13;100912.34;5078187;27;45392;-63
2023/08/28 04:11:33;;;;;;;;;1.67;1.00;;;;;18.54;61.13;100921.09;5077343;27;46403;-62
2023/08/28 04:13:58;;;;;;;;;0.00;0.00;;;;;18.56;60.63;100918.41;5077658;27;45486;-62
2023/08/28 04:16:24;;;;;;;;;2.00;1.00;;;;;18.60;60.71;100925.34;5078175;27;45550;-62
2023/08/28 04:18:51;;;;;;;;;0.00;0.00;;;;;18.61;60.67;100914.69;5077792;27;45550;-63
2023/08/28 04:21:23;;;;;;;;;1.00;1.00;;;;;18.55;60.73;100903.38;5078504;27;45866;-63
2023/08/28 04:23:49;;;;;;;;;1.00;1.00;;;;;18.64;60.63;100916.38;5076386;27;45326;-62
2023/08/28 04:26:14;;;;;;;;;2.00;2.00;;;;;18.66;60.40;100917.22;5077612;27;46078;-61
2023/08/28 04:28:40;;;;;;;;;1.00;1.00;;;;;18.59;60.57;100903.25;5077412;28;45482;-64
2023/08/28 04:31:08;;;;;;;;;1.00;1.00;;;;;18.65;60.97;100912.84;5077463;27;45916;-62
2023/08/28 04:33:34;;;;;;;;;0.00;0.00;;;;;18.64;61.11;100906.66;5078811;27;45416;-63
2023/08/28 04:35:59;;;;;;;;;1.00;1.00;;;;;18.62;60.73;100900.50;5078812;27;45450;-63
2023/08/28 04:38:25;;;;;;;;;2.33;2.00;;;;;18.67;60.73;100904.81;5078621;27;45266;-62
2023/08/28 04:40:50;;;;;;;;;1.00;1.00;;;;;18.62;60.40;100895.19;5078691;27;45416;-62
2023/08/28 04:43:16;;;;;;;;;3.67;1.00;;;;;18.64;60.78;100896.03;5077001;27;45379;-62
2023/08/28 04:45:42;;;;;;;;;0.67;0.67;;;;;18.67;60.40;100903.03;5077508;27;45428;-62
2023/08/28 04:48:07;;;;;;;;;1.33;1.33;;;;;18.68;60.52;100896.81;5077476;27;45474;-62
2023/08/28 04:50:33;;;;;;;;;0.00;0.00;;;;;18.61;60.47;100884.66;5078108;27;46141;-62
2023/08/28 04:52:58;;;;;;;;;1.00;1.00;;;;;18.61;60.62;100888.16;5076315;27;45289;-63
2023/08/28 04:55:24;;;;;;;;;2.67;1.00;;;;;18.67;60.61;100888.91;5075768;27;45377;-62
2023/08/28 04:57:49;;;;;;;;;1.00;0.67;;;;;18.70;60.51;100886.16;5079078;27;45423;-64
2023/08/28 05:00:15;;;;;;;;;1.00;1.00;;;;;18.61;60.55;100874.91;5077606;27;46186;-62
2023/08/28 05:02:41;;;;;;;;;1.00;1.00;;;;;18.66;60.44;100885.38;5075645;27;45426;-62
2023/08/28 05:05:06;;;;;;;;;2.67;1.00;;;;;18.67;60.65;100888.91;5076863;27;45515;-62
2023/08/28 05:07:32;;;;;;;;;1.00;1.00;;;;;18.64;60.89;100888.06;5078447;27;45489;-62
2023/08/28 05:09:57;;;;;;;;;2.00;1.00;;;;;18.65;60.88;100883.66;5078025;28;45401;-63
2023/08/28 05:12:23;;;;;;;;;1.00;1.00;;;;;18.45;60.85;100847.09;5077705;27;45317;-62
2023/08/28 05:14:48;;;;;;;;;1.00;1.00;;;;;18.64;60.71;100880.13;5076532;27;46055;-62
2023/08/28 05:17:14;;;;;;;;;1.00;1.00;;;;;18.64;60.79;100874.81;5076652;27;45423;-62
2023/08/28 05:19:46;;;;;;;;;1.00;0.33;;;;;18.62;60.67;100866.03;5076219;27;46368;-61
2023/08/28 05:22:11;;;;;;;;;1.00;1.00;;;;;18.67;60.73;100881.81;5075222;27;45302;-62
2023/08/28 05:24:38;;;;;;;;;3.00;1.67;;;;;18.66;60.74;100882.72;5078229;27;45481;-63
2023/08/28 05:27:08;;;;;;;;;1.33;1.00;;;;;18.60;60.76;100869.63;5078106;27;45323;-63
2023/08/28 05:29:38;;;;;;;;;2.00;2.00;;;;;18.69;60.58;100889.72;5076495;27;46696;-61
2023/08/28 05:32:04;;;;;;;;;1.67;1.67;;;;;18.67;60.62;100886.25;5076443;28;45280;-62
2023/08/28 05:34:31;;;;;;;;;4.33;3.00;;;;;18.70;60.74;100896.75;5077314;27;45373;-61
2023/08/28 05:36:56;;;;;;;;;1.33;1.33;;;;;18.63;60.65;100878.38;5076676;27;45287;-64
2023/08/28 05:39:22;;;;;;;;;5.67;2.00;;;;;18.69;60.83;100887.94;5076798;27;45378;-64
2023/08/28 05:41:51;;;;;;;;;3.67;3.33;;;;;18.69;60.63;100879.13;5077915;27;45590;-65
2023/08/28 05:44:17;;;;;;;;;1.33;1.33;;;;;18.66;60.75;100882.72;5077195;27;45188;-62
2023/08/28 05:46:42;;;;;;;;;1.33;1.33;;;;;18.67;60.63;100887.13;5079830;27;45610;-64
2023/08/28 05:49:08;;;;;;;;;1.00;1.00;;;;;18.68;60.78;100885.34;5078276;27;46669;-63
2023/08/28 05:51:33;;;;;;;;;1.67;1.67;;;;;18.67;60.68;100886.25;5080028;27;45412;-66
2023/08/28 05:53:59;;;;;;;;;2.00;2.00;;;;;18.69;60.78;100885.28;5080107;27;45315;-65
2023/08/28 05:56:24;;;;;;;;;2.00;2.00;;;;;18.60;60.76;100861.69;5079860;27;45483;-65
2023/08/28 05:58:50;;;;;;;;;3.00;3.00;;;;;18.70;60.79;100871.13;5079191;27;46485;-64
2023/08/28 06:01:15;;;;;;;;;4.00;2.00;;;;;18.78;60.59;100870.94;5079539;27;45435;-67
2023/08/28 06:03:41;;;;;;;;;5.00;3.00;;;;;18.79;60.51;100864.69;5079789;27;45512;-63
2023/08/28 06:06:07;;;;;;;;;2.00;2.00;;;;;18.84;60.59;100870.75;5079993;27;45376;-64
2023/08/28 06:08:33;;;;;;;;;2.00;2.00;;;;;18.86;60.46;100868.91;5095489;27;47234;-62
2023/08/28 06:10:58;;;;;;;;;3.33;2.00;;;;;18.81;60.10;100852.25;5080177;27;45420;-62
2023/08/28 06:13:24;;;;;;;;;3.67;2.33;;;;;18.83;60.62;100848.63;5079658;27;45437;-62
2023/08/28 06:15:50;;;;;;;;;3.00;3.00;;;;;18.92;60.51;100858.09;5079453;27;45426;-62
2023/08/28 06:18:16;;;;;;;;;2.67;2.67;;;;;18.93;60.40;100864.28;5112145;27;47205;-62
2023/08/28 06:20:41;;;;;;;;;1.67;1.67;;;;;18.93;60.46;100861.63;5078927;27;45499;-63
2023/08/28 06:23:07;;;;;;;;;3.00;2.00;;;;;18.94;60.67;100866.91;5079113;27;45526;-63
2023/08/28 06:25:32;;;;;;;;;3.00;3.00;;;;;18.99;60.20;100870.28;5080674;27;45569;-64
2023/08/28 06:27:58;;;;;;;;;1.00;1.00;;;;;19.04;60.34;100871.00;5080094;27;45467;-63
2023/08/28 06:30:24;;;;;;;;;1.33;1.33;;;;;19.09;60.26;100872.66;5080209;27;45318;-67
2023/08/28 06:32:49;;;;;;;;;1.00;1.00;;;;;19.12;59.80;100869.88;5079059;27;45319;-66
2023/08/28 06:35:15;;;;;;;;;1.00;1.00;;;;;19.17;59.72;100873.25;5079084;27;45325;-63
2023/08/28 06:37:40;;;;;;;;;1.00;0.00;;;;;19.21;59.94;100869.59;5079156;27;45347;-63
2023/08/28 06:40:11;;;;;;;;;1.00;1.00;;;;;19.12;59.76;100849.50;5094855;27;45420;-62
2023/08/28 06:42:36;;;;;;;;;5.33;3.00;;;;;19.28;60.06;100873.81;5078401;28;45725;-62
2023/08/28 06:45:03;;;;;;;;;7.67;4.67;;;;;19.33;59.47;100879.81;5078868;27;45578;-62
2023/08/28 06:47:29;;;;;;;;;44.25;35.50;;;;;19.38;59.56;100869.06;5079245;27;45780;-63
2023/08/28 06:49:56;;;;;;;;;27.33;27.00;;;;;19.35;59.24;100854.09;5079695;27;45424;-62
2023/08/28 06:52:21;;;;;;;;;17.00;16.33;;;;;19.44;59.30;100860.91;5078883;27;45632;-62
2023/08/28 06:54:47;;;;;;;;;8.00;7.00;;;;;19.63;59.13;100870.00;5079975;27;45356;-63
2023/08/28 06:57:12;;;;;;;;;5.00;5.00;;;;;19.75;58.68;100867.88;5078717;27;45420;-62
2023/08/28 06:59:38;;;;;;;;;3.00;3.00;;;;;19.83;58.39;100861.38;5078971;27;45486;-62
2023/08/28 07:02:03;;;;;;;;;6.00;3.00;;;;;19.88;58.57;100854.13;5078829;27;45320;-61
2023/08/28 07:04:29;;;;;;;;;4.00;2.00;;;;;19.98;57.98;100851.13;5069668;27;45420;-63
2023/08/28 07:06:55;;;;;;;;;4.00;2.67;;;;;20.15;57.77;100854.06;5060143;27;46643;-62
2023/08/28 07:09:20;;;;;;;;;1.33;1.33;;;;;20.27;57.54;100850.97;5060609;27;45532;-61
2023/08/28 07:11:46;;;;;;;;;2.00;2.00;;;;;20.29;57.38;100843.78;5064950;27;45409;-61
2023/08/28 07:14:12;;;;;;;;;3.67;3.00;;;;;20.43;57.09;100858.38;5075183;28;45427;-63
2023/08/28 07:16:38;;;;;;;;;2.33;2.33;;;;;20.51;56.98;100853.63;5070885;27;45939;-62
2023/08/28 07:19:03;;;;;;;;;2.00;2.00;;;;;20.37;56.76;100827.56;5067483;27;45577;-62
2023/08/28 07:21:29;;;;;;;;;3.33;3.00;;;;;20.44;57.00;100846.81;5068660;27;45468;-63
2023/08/28 07:23:54;;;;;;;;;2.67;2.67;;;;;20.31;56.94;100833.09;5076176;27;46076;-63
2023/08/28 07:26:20;;;;;;;;;2.33;2.00;;;;;20.31;57.01;100835.75;5061928;28;46111;-62
2023/08/28 07:28:48;;;;;;;;;5.33;3.00;;;;;20.43;57.08;100851.28;5070575;27;45586;-62
2023/08/28 07:31:14;;;;;;;;;2.67;2.33;;;;;20.45;57.14;100852.06;5071662;27;45528;-64
2023/08/28 07:33:40;;;;;;;;;2.00;2.00;;;;;20.49;57.10;100856.34;5071716;27;45483;-63
2023/08/28 07:36:06;;;;;;;;;2.00;2.00;;;;;20.52;57.25;100856.25;5075137;27;46379;-62
2023/08/28 07:38:31;;;;;;;;;2.00;2.00;;;;;20.51;56.99;100853.63;5073061;27;45413;-62
2023/08/28 07:41:06;;;;;;;;;2.33;2.33;;;;;20.49;57.43;100852.81;5076967;28;45520;-62
2023/08/28 07:43:31;;;;;;;;;2.33;2.33;;;;;20.44;57.33;100852.13;5075598;27;45519;-62
2023/08/28 07:45:57;;;;;;;;;3.00;2.00;;;;;20.36;57.48;100843.56;5076811;28;46516;-62
2023/08/28 07:48:23;;;;;;;;;3.00;2.00;;;;;20.31;57.60;100851.69;5073553;27;45534;-61
2023/08/28 07:50:49;;;;;;;;;2.00;2.00;;;;;20.24;57.97;100843.09;5073575;28;45603;-68
2023/08/28 07:53:14;;;;;;;;;4.00;2.67;;;;;20.24;57.80;100850.19;5074077;27;46941;-64
2023/08/28 07:55:40;;;;;;;;;2.00;2.00;;;;;20.28;57.84;100855.34;5063182;27;45501;-64
2023/08/28 07:58:09;;;;;;;;;3.33;3.33;;;;;20.20;57.64;100832.63;5062404;27;45267;-65
2023/08/28 08:00:35;;;;;;;;;5.00;3.00;;;;;20.44;57.82;100857.47;5076203;27;45575;-65
2023/08/28 08:03:03;;;;;;;;;3.33;3.33;;;;;20.54;57.76;100851.72;5066735;27;45882;-64
2023/08/28 08:05:29;;;;;;;;;4.33;3.00;;;;;20.57;57.47;100850.75;5060650;27;45459;-65
2023/08/28 08:07:58;;;;;;;;;3.67;3.67;;;;;20.65;57.08;100847.84;5059916;28;45576;-65
2023/08/28 08:10:24;;;;;;;;;4.00;4.00;;;;;20.72;57.19;100844.88;5074410;27;45551;-65
2023/08/28 08:12:49;;;;;;;;;5.67;4.00;;;;;20.89;56.99;100857.53;5060673;27;45338;-66
2023/08/28 08:15:15;;;;;;;;;3.00;2.00;;;;;20.99;56.69;100859.84;5062998;28;46261;-65
2023/08/28 08:17:40;;;;;;;;;4.00;4.00;;;;;21.01;56.54;100860.66;5060878;27;45411;-64
2023/08/28 08:20:10;;;;;;;;;3.67;3.33;;;;;21.06;56.19;100859.53;5059491;27;45409;-64
2023/08/28 08:22:40;;;;;;;;;3.33;3.33;;;;;21.08;56.11;100863.00;5062033;27;45185;-64
2023/08/28 08:25:10;;;;;;;;;5.00;3.67;;;;;21.10;56.25;100865.63;5060110;27;45502;-64
2023/08/28 08:27:38;;;;;;;;;4.33;4.00;;;;;21.11;56.28;100870.84;5060945;28;45234;-64
2023/08/28 08:30:05;;;;;;;;;3.67;3.33;;;;;21.13;56.19;100865.47;5078740;27;45401;-66
2023/08/28 08:32:30;;;;;;;;;3.33;3.33;;;;;21.10;56.20;100857.63;5077111;27;45357;-64
2023/08/28 08:34:58;;;;;;;;;2.00;2.00;;;;;21.27;55.95;100886.25;5092350;27;46214;-64
2023/08/28 08:37:25;;;;;;;;;6.00;3.33;;;;;21.31;55.92;100885.19;5068155;27;46019;-64
2023/08/28 08:40:03;;;;;;;;;2.00;2.00;;;;;21.37;55.63;100880.47;5066837;27;45495;-65
2023/08/28 08:42:32;;;;;;;;;4.00;3.00;;;;;21.43;55.38;100876.75;5066053;27;45622;-64
2023/08/28 08:44:58;;;;;;;;;3.00;3.00;;;;;21.49;55.13;100870.28;5064636;27;45479;-64
2023/08/28 08:47:24;;;;;;;;;5.33;4.00;;;;;21.67;54.70;100874.00;5062936;28;45519;-65
2023/08/28 08:49:56;;;;;;;;;5.00;4.00;;;;;21.73;54.69;100871.03;5068421;27;45342;-64
2023/08/28 08:52:23;;;;;;;;;3.00;3.00;;;;;21.85;54.57;100883.84;5063358;28;45509;-63
2023/08/28 08:54:59;;;;;;;;;5.00;3.33;;;;;21.86;53.94;100871.41;5068579;27;46227;-65
2023/08/28 08:57:47;;;;;;;;;4.33;4.00;;;;;22.02;54.13;100883.16;5063845;27;45424;-65
2023/08/28 09:00:15;;;;;;;;;6.00;4.33;;;;;22.12;53.85;100871.13;5063860;27;45608;-66
2023/08/28 09:02:41;;;;;;;;;3.00;3.00;;;;;22.27;53.45;100874.09;5078397;27;45613;-66
2023/08/28 09:05:10;;;;;;;;;3.00;3.00;;;;;22.33;53.34;100866.69;5061971;27;46014;-67
2023/08/28 09:07:48;;;;;;;;;3.00;3.00;;;;;22.38;53.27;100856.66;5062522;27;45412;-67
2023/08/28 09:10:14;;;;;;;;;5.33;3.33;;;;;22.63;52.87;100868.88;5068386;28;45366;-65
2023/08/28 09:12:42;;;;;;;;;5.33;4.33;;;;;22.69;52.25;100870.44;5062713;28;45468;-66
2023/08/28 09:15:10;;;;;;;;;5.00;5.00;;;;;22.51;52.35;100832.09;5063791;27;46243;-64
2023/08/28 09:17:40;;;;;;;;;3.00;3.00;;;;;22.67;52.00;100862.47;5064413;27;45504;-65
2023/08/28 09:20:13;;;;;;;;;5.67;5.00;;;;;22.64;52.16;100873.31;5070952;27;45463;-65
2023/08/28 09:22:48;;;;;;;;;4.67;4.33;;;;;22.46;52.03;100863.47;5068467;27;45460;-64
2023/08/28 09:25:16;;;;;;;;;4.00;4.00;;;;;22.38;52.37;100840.66;5072099;27;45455;-67
2023/08/28 09:27:45;;;;;;;;;3.67;3.67;;;;;22.55;52.19;100866.56;5098815;27;45366;-64
2023/08/28 09:30:28;;;;;;;;;4.67;4.00;;;;;22.54;52.28;100864.84;5083249;27;45354;-66
2023/08/28 09:32:54;;;;;;;;;5.00;5.00;;;;;22.51;52.36;100854.28;5083263;27;45265;-64
2023/08/28 09:35:20;;;;;;;;;4.00;4.00;;;;;22.49;51.95;100855.31;5083613;27;45405;-68
2023/08/28 09:37:59;;;;;;;;;3.67;2.33;;;;;22.53;51.84;100851.56;5083960;27;45432;-67
2023/08/28 09:40:30;;;;;;;;;5.00;3.33;;;;;22.72;51.42;100852.44;5069784;27;45548;-68
2023/08/28 09:42:59;;;;;;;;;9.00;5.33;;;;;22.86;50.91;100855.31;5082996;27;45508;-67
2023/08/28 09:45:32;;;;;;;;;6.00;5.00;;;;;22.86;50.73;100857.13;5082928;27;46451;-68
2023/08/28 09:47:58;;;;;;;;;6.00;5.00;;;;;22.84;49.97;100846.53;5083214;27;45442;-66
2023/08/28 09:50:28;;;;;;;;;4.00;4.00;;;;;23.06;50.37;100853.53;5099162;27;45860;-67
2023/08/28 09:52:53;;;;;;;;;7.00;5.67;;;;;23.23;49.53;100847.38;5085390;27;45341;-68
2023/08/28 09:55:20;;;;;;;;;4.67;4.67;;;;;23.14;49.87;100862.06;5100155;27;47069;-65
2023/08/28 09:57:46;;;;;;;;;6.00;4.67;;;;;23.13;50.02;100854.97;5083757;27;45385;-66
2023/08/28 10:00:13;;;;;;;;;5.67;4.00;;;;;23.11;49.95;100854.19;5084264;27;45403;-68
2023/08/28 10:02:39;;;;;;;;;5.00;5.00;;;;;23.12;49.90;100853.25;5083572;27;45414;-65
2023/08/28 10:05:08;;;;;;;;;5.33;4.00;;;;;23.06;50.06;100858.88;5083044;27;45313;-68
2023/08/28 10:07:39;;;;;;;;;4.33;4.33;;;;;22.90;49.95;100849.84;5082612;27;45373;-70
2023/08/28 10:10:06;;;;;;;;;4.00;4.00;;;;;22.60;50.42;100839.66;5084294;27;45375;-68
2023/08/28 10:12:33;;;;;;;;;5.33;5.00;;;;;22.53;50.82;100849.75;5082757;27;45363;-65
2023/08/28 10:15:03;;;;;;;;;5.00;3.67;;;;;22.48;51.18;100856.25;5082818;27;46317;-66
2023/08/28 10:17:33;;;;;;;;;8.00;5.33;;;;;22.34;51.57;100856.88;5082544;27;45349;-63
2023/08/28 10:20:03;;;;;;;;;6.00;3.33;;;;;22.17;51.44;100855.78;5099722;27;45345;-66
2023/08/28 10:22:30;;;;;;;;;5.00;4.00;;;;;21.99;51.84;100857.47;5082719;27;45594;-66
2023/08/28 10:24:57;;;;;;;;;3.67;3.67;;;;;21.91;52.17;100858.75;5082791;27;46286;-67
2023/08/28 10:27:24;;;;;;;;;5.00;3.67;;;;;21.83;52.68;100869.75;5084194;27;45259;-68
2023/08/28 10:29:52;;;;;;;;;4.33;4.33;;;;;21.68;53.99;100875.72;5080410;27;45508;-68
2023/08/28 10:32:20;;;;;;;;;4.33;4.33;;;;;21.56;55.15;100875.28;5081626;27;45286;-67
2023/08/28 10:34:46;;;;;;;;;5.00;5.00;;;;;21.41;55.59;100872.41;5079422;27;45495;-67
2023/08/28 10:37:13;;;;;;;;;4.67;4.67;;;;;21.26;56.02;100865.84;5079829;27;46031;-65
2023/08/28 10:39:41;;;;;;;;;4.33;4.33;;;;;21.24;56.84;100868.59;5111646;27;45389;-66
2023/08/28 10:42:09;;;;;;;;;7.33;4.00;;;;;21.24;56.70;100876.59;5080996;27;45302;-66
2023/08/28 10:44:37;;;;;;;;;4.00;4.00;;;;;21.13;56.78;100861.00;5081130;27;45578;-65
2023/08/28 10:47:03;;;;;;;;;7.00;5.00;;;;;21.22;57.91;100878.44;5073971;27;45389;-64
2023/08/28 10:49:29;;;;;;;;;5.00;5.00;;;;;20.98;59.51;100866.97;5074165;27;45424;-64
2023/08/28 10:52:04;;;;;;;;;6.00;5.67;;;;;21.07;58.83;100882.59;5070524;27;45538;-65
2023/08/28 10:54:43;;;;;;;;;5.00;3.67;;;;;21.13;58.07;100885.00;5075545;27;46431;-64
2023/08/28 10:57:29;;;;;;;;;5.67;5.00;;;;;21.19;57.87;100878.56;5074438;27;45469;-65
2023/08/28 10:59:59;;;;;;;;;4.00;4.00;;;;;21.24;57.63;100879.25;5074661;27;45569;-63
2023/08/28 11:02:24;;;;;;;;;7.00;5.00;;;;;21.26;57.17;100868.50;5062115;27;45301;-67
2023/08/28 11:04:50;;;;;;;;;4.33;4.33;;;;;21.38;57.52;100881.34;5060678;27;45491;-64
2023/08/28 11:07:22;;;;;;;;;9.00;6.00;;;;;21.42;58.31;100877.66;5065362;27;45521;-64
2023/08/28 11:09:49;;;;;;;;;3.33;3.33;;;;;21.42;57.95;100863.47;5064542;27;45533;-67
2023/08/28 11:12:15;;;;;;;;;4.00;4.00;;;;;21.62;57.01;100868.84;5066465;27;45267;-65
2023/08/28 11:14:55;;;;;;;;;5.67;5.00;;;;;21.74;56.17;100872.81;5063108;27;45512;-64
2023/08/28 11:17:22;;;;;;;;;6.67;4.33;;;;;21.97;55.11;100864.69;5064237;27;45496;-63
2023/08/28 11:19:54;;;;;;;;;5.33;4.67;;;;;22.22;54.83;100856.47;5065009;28;45435;-64
2023/08/28 11:22:42;;;;;;;;;5.33;4.67;;;;;22.51;53.86;100846.28;5069963;27;45524;-62
2023/08/28 11:25:35;;;;;;;;;6.33;5.33;;;;;22.92;52.82;100840.84;5070693;27;46411;-64